Vilhelmina, Sweden

3:30 AM CET on December 05, 2016 (GMT +0100)
Storuman | | Change Station

Elev 915 ft 64.96 °N, 17.70 °E | Updated 10 minutes ago

Clear
Clear
36 °F
Feels Like 24 °F
N
21
Wind Variable Wind from WNW

Today
High -- | Low -- °F
--% Chance of Precip.
Yesterday
High -- | Low -- °F
Precip. -- in
Pressure 29.36 in
Visibility 6.2 miles
Clouds
Windchill 24 °F
Dew Point 27 °F
Humidity 70%
Rainfall 0.00 in
Snow Depth Not available.
9:28 AM 1:57 PM
Waxing Crescent, 27% visible
METAR ESUD 050220Z AUTO 30018KT 9999 NCD 02/M03 Q0994
Pressure 29.36 in
Visibility 6.2 miles
Clouds
Windchill 24 °F
Dew Point 27 °F
Humidity 70%
Rainfall 0.00 in
Snow Depth Not available.
9:28 AM 1:57 PM
Waxing Crescent, 27% visible
METAR ESUD 050220Z AUTO 30018KT 9999 NCD 02/M03 Q0994

10-Day Weather Forecast

×

Almanac

Astronomy

Dec. 05, 2016 Rise Set
Actual Time
Civil Twilight
Nautical Twilight
Astronomical Twilight
Moon
Length of Visible Light
Length of Day
Tomorrow will be .
, % of the Moon is Illuminated

Today's Extremes

Country Highs Country Lows

Community

WunderPhotos

Upload Photos

1,955,746 photos uploaded!

WunderBlog® & News

Nearby

Air Quality

  Air Quality AQ Index Pollutant
Not available.

Snow Depth

Station Depth Elevation

Earthquake Activity

City Distance Mag. Time & Date
Minimum magnitude displayed is 2.5.

Coastal Water Temperatures

Place Temperature

Stations

Nearby Weather Stations

Station Location Temp. Windchill Dew Point Humidity Wind Precip. Elev Updated Type